Hauptseite
METAR-TAF:

METAR-TAF

Flughäfen :

Flughafen Pohnpei

Pohnpei, Mikronesien

Breite: 06-59N, Länge: 158-12E, Höhe: 2 m

Beobachtung

Neuester Wetterbericht von vor 20 Minuten, um 21:50 UTC
Wind 5 kt aus Süd/Südwest
Temperatur 29°C
Luftfeuchtigkeit 84%
Luftdruck 1010 hPa
Sichtweite: 22.5 km
Durchbrochene Bewölkung in der Höhe von 1700 ft, Towering cumulus.
Durchbrochene Bewölkung in der Höhe von 13000 ft
Geschlossene Wolkendecke in der Höhe von 30000 ft
Regenschauer

METAR: PTPN 182150Z 21005KT 14SM -SHRA BKN017TCU BKN130 OVC300 29/26 A2982 RMK TCU ALQDS

Zeit: 09:10 (22:10 UTC)

Prognose

Neuester Wetterbericht von vor 6 Minuten, um 22:04 UTC
Gültige Prognose vom 18 um 22 UTC bis 19 um 18 UTC
Wind 10 kt aus West/Nordwest
Sichtweite: 10 km
Aufgelockert bewölkt in der Höhe von 1700 ft
Durchbrochene Bewölkung in der Höhe von 10000 ft
Schauer in der Nähe

TAF: PTPN 182204Z 1822/1918 29010KT P6SM VCSH SCT017 BKN100

Wetterbeobachtungen und Prognosen von mehr als 4000 Flughäfen (METAR und TAF Bericht).

Die verfügbaren Stationen werden durch gelbe und rote Markierungen auf der Karte dargestellt.

Führen Sie die Maus auf sie, um den Namen der Station zu sehen.

Darauf klicken, um die Beobachtung von Wetterbeobachtungen und Prognosen zu sehen.

Um die Karte zu ändern : klicken Sie auf den grünen Tasten mit einem schwarzen Kreuz Zum Vergrößern, auf den grünen Button mit einem Gedankenstrich zu verkleinern, oder auf die grünen Pfeile für benachbarte Karten.


METAR-TAF: